Pagrindinis puslapis
METAR-TAF:

METAR-TAF

Oro uostai :

Phitsanulok, Tailandas

platuma: 16-46-23N, ilguma: 100-16-56E, Aukštis: 47 m

Dabartinis oras

Ataskaita buvo paskelbta 8 valandos ir 24 minutes, ne 13:00 UTC
Vėjas 4 kt iš Pietų
Temperatūra 27°C
Drėgmė 84%
Slėgis 1009 hPa
Matomumas: 8000 m
Mažai debesys ne aukštis 2000 ft, Liūtiniai kamuoliniai debesys.
Su prošvaistėmis ne aukštis 8000 ft
lietus

METAR: VTPP 201300Z 17004KT 8000 -RA FEW020CB BKN080 27/24 Q1009 TEMPO -TSRA

Laikas: 04:24 (21:24 UTC)

Prognozė

Ataskaita buvo paskelbta 4 valandos ir 24 minutes, ne 17:00 UTC
Prognozė galioja nuo 20 metu 18 UTC su 21 metu 18 UTC
Vėjas 5 kt iš Pietryčių
Matomumas 10 km arba daugiau
Išsisklaidę debesys ne aukštis 2500 ft
Laikinai
nuo 21 metu 06 UTC su 21 metu 12 UTC
Vėjas 15 kt nuo kintamojo kryptimis su gūsio iki 25 kt
Matomumas: 5000 m
Mažai debesys ne aukštis 2000 ft, Liūtiniai kamuoliniai debesys.
Su prošvaistėmis ne aukštis 2500 ft
perkūnija, lietus

TAF: VTPP 201700Z 2018/2118 14005KT 9999 SCT025 TEMPO 2106/2112 VRB15G25KT 5000 TSRA FEW020CB BKN025

Orai ataskaitas ir orų prognozės (METAR, TAF).

turimą stotys yra geltonos ir raudonos taškus žemėlapyje.

Perkelti pele per norėdami pamatyti stoties vardą.

Tada spustelėkite, norėdami matyti oro stebėjimo ir prognozės.

Norėdami pakeisti žemėlapį: spustelėkite ant žalios mygtukų su juodo kryžiaus žemyn,; žalią mygtuką su brūkšneliu, jei norite nutolinti; arba žalių rodyklių gretimoms žemėlapius.


METAR-TAF: